Time;durP1;ratioP1;P1;durP2;ratioP2;P2;SDS_P1;SDS_P2;PMS_P1;PMS_P2;Temp;Humidity;BMP_temperature;BMP_pressure;BME280_temperature;BME280_humidity;BME280_pressure;Samples;Min_cycle;Max_cycle;Signal;HPM_P1;HPM_P2
2023/12/14 00:02:09;;;;;;;3.47;3.27;;;5.80;99.90;;;6.23;100.00;96882.47;10373392;28;20227;-66
2023/12/14 00:07:14;;;;;;;3.30;3.07;;;5.80;99.90;;;6.24;100.00;96884.25;10370962;28;20230;-66
2023/12/14 00:12:19;;;;;;;3.10;2.90;;;5.80;99.90;;;6.17;100.00;96889.75;10373917;28;20249;-66
2023/12/14 00:17:22;;;;;;;3.60;3.30;;;5.70;99.90;;;6.15;100.00;96887.91;10357526;28;20325;-67
2023/12/14 00:22:25;;;;;;;3.57;3.27;;;5.70;99.90;;;6.21;100.00;96903.47;10371137;28;20277;-67
2023/12/14 00:27:29;;;;;;;3.10;2.90;;;5.80;99.90;;;6.28;100.00;96903.94;10374212;28;20232;-70
2023/12/14 00:32:32;;;;;;;3.03;2.83;;;5.80;99.90;;;6.33;100.00;96916.88;10369525;28;20598;-66
2023/12/14 00:37:36;;;;;;;3.43;3.13;;;5.90;99.90;;;6.32;100.00;96922.72;10368557;28;20288;-66
2023/12/14 00:42:40;;;;;;;3.37;3.10;;;5.80;99.90;;;6.34;100.00;96920.31;10375684;28;20789;-66
2023/12/14 00:47:44;;;;;;;3.53;3.33;;;5.80;99.90;;;6.31;100.00;96926.94;10360539;28;20609;-67
2023/12/14 00:52:47;;;;;;;3.40;3.20;;;5.80;99.90;;;6.32;100.00;96932.88;10373277;28;20285;-66
2023/12/14 00:57:51;;;;;;;3.77;3.47;;;5.80;99.90;;;6.37;100.00;96940.78;10366903;28;20240;-65
2023/12/14 01:02:55;;;;;;;3.67;3.37;;;5.80;99.90;;;6.30;100.00;96953.13;10366311;28;20218;-66
2023/12/14 01:07:58;;;;;;;3.77;3.47;;;5.80;99.90;;;6.27;100.00;96960.53;10376094;28;20316;-66
2023/12/14 01:13:02;;;;;;;4.83;4.40;;;5.80;99.90;;;6.34;100.00;96966.84;10372715;28;20218;-67
2023/12/14 01:18:05;;;;;;;5.60;4.10;;;5.80;99.90;;;6.30;100.00;96970.00;10375189;28;20233;-68
2023/12/14 01:23:10;;;;;;;4.47;4.07;;;5.80;99.90;;;6.29;100.00;96979.25;10378030;28;20218;-68
2023/12/14 01:28:14;;;;;;;5.03;4.63;;;5.80;99.90;;;6.33;100.00;96990.47;10373402;28;20242;-66
2023/12/14 01:33:17;;;;;;;5.30;4.90;;;5.90;99.90;;;6.37;100.00;96991.53;10375737;28;20233;-66
2023/12/14 01:38:21;;;;;;;4.67;4.37;;;5.90;99.90;;;6.40;100.00;97002.72;10370621;28;20233;-67
2023/12/14 01:43:25;;;;;;;4.50;4.10;;;5.90;99.90;;;6.38;100.00;97005.97;10376643;28;20242;-66
2023/12/14 01:48:28;;;;;;;4.70;4.40;;;5.90;99.90;;;6.44;100.00;97013.94;10363177;28;20283;-67
2023/12/14 01:53:32;;;;;;;4.23;3.93;;;6.00;99.90;;;6.46;100.00;97023.41;10373513;28;20630;-66
2023/12/14 01:58:36;;;;;;;4.90;4.50;;;6.00;99.90;;;6.39;100.00;97030.56;10369922;28;20234;-66
2023/12/14 02:03:45;;;;;;;5.23;4.73;;;5.90;99.90;;;6.43;100.00;97037.56;10366018;28;20223;-66
2023/12/14 02:08:49;;;;;;;4.80;4.40;;;5.90;99.90;;;6.50;100.00;97039.72;10366369;28;20222;-65
2023/12/14 02:13:53;;;;;;;5.37;4.87;;;6.00;99.90;;;6.44;100.00;97042.75;10370387;28;20234;-68
2023/12/14 02:18:56;;;;;;;5.20;4.77;;;5.90;99.90;;;6.49;100.00;97048.09;10364729;28;20234;-65
2023/12/14 02:24:01;;;;;;;5.60;5.10;;;5.90;99.90;;;6.42;100.00;97041.78;10370432;28;20240;-65
2023/12/14 02:29:04;;;;;;;5.80;5.30;;;5.90;99.90;;;6.37;100.00;97052.44;10363123;28;20230;-69
2023/12/14 02:34:07;;;;;;;6.37;5.80;;;5.90;99.90;;;6.40;100.00;97060.22;10364305;28;20835;-68
2023/12/14 02:39:12;;;;;;;6.30;5.40;;;5.90;99.90;;;6.37;100.00;97062.59;10367688;28;20356;-67
2023/12/14 02:44:15;;;;;;;7.23;6.53;;;5.90;99.90;;;6.38;100.00;97070.31;10371862;28;20344;-68
2023/12/14 02:49:18;;;;;;;9.10;8.20;;;5.90;99.90;;;6.42;100.00;97071.38;10365252;28;20229;-67
2023/12/14 02:54:23;;;;;;;9.23;8.40;;;5.90;99.90;;;6.42;100.00;97071.38;10375938;28;20229;-67
2023/12/14 02:59:26;;;;;;;6.93;6.33;;;5.90;99.90;;;6.38;100.00;97084.63;10369560;28;20236;-65
2023/12/14 03:04:29;;;;;;;7.03;6.07;;;5.90;99.90;;;6.40;100.00;97083.06;10370358;28;20227;-66
2023/12/14 03:09:34;;;;;;;7.20;6.60;;;5.90;99.90;;;6.36;100.00;97091.31;10364433;28;20268;-67
2023/12/14 03:14:37;;;;;;;6.90;6.33;;;5.90;99.90;;;6.37;100.00;97098.13;10364325;28;20325;-65
2023/12/14 03:19:41;;;;;;;7.43;6.73;;;5.90;99.90;;;6.36;100.00;97106.53;10363481;28;20221;-68
2023/12/14 03:24:46;;;;;;;7.50;6.73;;;5.90;99.90;;;6.38;100.00;97110.91;10373139;28;20233;-67
2023/12/14 03:29:50;;;;;;;8.27;7.50;;;5.90;99.90;;;6.33;100.00;97112.28;10373260;28;20324;-65
2023/12/14 03:34:53;;;;;;;7.57;6.97;;;5.80;99.90;;;6.39;100.00;97127.03;10365196;28;20260;-65
2023/12/14 03:39:57;;;;;;;7.30;6.60;;;5.80;99.90;;;6.45;100.00;97128.25;10365998;28;20242;-70
2023/12/14 03:45:00;;;;;;;6.47;5.97;;;5.90;99.90;;;6.36;100.00;97137.84;10368752;28;20232;-69
2023/12/14 03:50:04;;;;;;;8.17;7.47;;;5.90;99.90;;;6.37;100.00;97139.59;10364085;28;20303;-67
2023/12/14 03:55:10;;;;;;;8.60;7.90;;;5.90;99.90;;;6.42;100.00;97152.59;10362145;28;20321;-66
2023/12/14 04:00:15;;;;;;;9.03;8.23;;;5.90;99.90;;;6.37;100.00;97166.66;10363575;28;20312;-67
2023/12/14 04:05:18;;;;;;;8.73;7.93;;;5.90;99.90;;;6.37;100.00;97169.19;10367747;28;20225;-67
2023/12/14 04:10:23;;;;;;;8.80;8.00;;;5.90;99.90;;;6.30;100.00;97184.03;10368578;28;20236;-66
2023/12/14 04:15:26;;;;;;;9.60;8.77;;;5.90;99.90;;;6.38;100.00;97194.66;10369825;28;20316;-66
2023/12/14 04:20:29;;;;;;;9.27;8.37;;;5.90;99.90;;;6.37;100.00;97209.78;10361562;28;20229;-68
2023/12/14 04:25:33;;;;;;;7.70;7.00;;;5.90;99.90;;;6.44;100.00;97206.84;10375658;28;20303;-68
2023/12/14 04:30:36;;;;;;;8.00;7.20;;;6.00;99.90;;;6.45;100.00;97209.47;10374403;28;20245;-67
2023/12/14 04:35:40;;;;;;;8.37;7.57;;;6.00;99.90;;;6.46;100.00;97215.44;10382692;28;20313;-66
2023/12/14 04:40:44;;;;;;;8.23;7.43;;;6.00;99.90;;;6.53;100.00;97223.53;10370277;28;20284;-68
2023/12/14 04:45:47;;;;;;;9.70;8.73;;;6.00;99.90;;;6.54;100.00;97229.47;10374780;28;20617;-66
2023/12/14 04:50:50;;;;;;;11.00;9.93;;;6.00;99.90;;;6.49;100.00;97234.25;10379234;28;20229;-66
2023/12/14 04:55:55;;;;;;;9.83;8.80;;;6.00;99.90;;;6.46;100.00;97246.75;10367535;28;20229;-66
2023/12/14 05:00:58;;;;;;;10.90;9.80;;;6.00;99.90;;;6.45;100.00;97264.47;10370055;28;20314;-67
2023/12/14 05:06:01;;;;;;;11.63;10.43;;;6.00;99.90;;;6.49;100.00;97266.38;10364610;28;20253;-66
2023/12/14 05:11:06;;;;;;;12.00;10.80;;;6.00;99.90;;;6.47;100.00;97268.84;10379955;28;20238;-67
2023/12/14 05:16:14;;;;;;;12.97;11.03;;;6.00;99.90;;;6.49;100.00;97266.38;10369670;28;20230;-66
2023/12/14 05:21:18;;;;;;;12.97;11.67;;;6.00;99.90;;;6.45;100.00;97279.69;10370670;28;20234;-67
2023/12/14 05:26:22;;;;;;;13.63;12.30;;;6.00;99.90;;;6.43;100.00;97281.25;10368806;28;20928;-67
2023/12/14 05:31:25;;;;;;;12.50;11.20;;;6.00;99.90;;;6.46;100.00;97292.47;10361168;28;20234;-67
2023/12/14 05:36:28;;;;;;;13.97;12.57;;;6.00;99.90;;;6.46;100.00;97301.75;10371537;28;20237;-68
2023/12/14 05:41:33;;;;;;;12.73;11.53;;;6.00;99.90;;;6.54;100.00;97323.41;10370816;28;20235;-70
2023/12/14 05:46:37;;;;;;;12.43;11.27;;;6.00;99.90;;;6.50;100.00;97329.09;10370206;28;20231;-67
2023/12/14 05:51:40;;;;;;;12.70;11.40;;;6.00;99.90;;;6.55;100.00;97345.47;10369711;28;20225;-67
2023/12/14 05:56:44;;;;;;;13.33;12.03;;;6.00;99.90;;;6.49;100.00;97345.97;10364882;28;20266;-67
2023/12/14 06:01:48;;;;;;;11.87;10.67;;;6.00;99.90;;;6.45;100.00;97350.75;10366971;28;20224;-68
2023/12/14 06:06:51;;;;;;;13.20;11.80;;;6.00;99.90;;;6.51;100.00;97351.16;10358905;28;20227;-66
2023/12/14 06:11:55;;;;;;;16.13;12.53;;;6.10;99.90;;;6.55;100.00;97370.84;10357475;28;20218;-66
2023/12/14 06:16:59;;;;;;;11.43;10.23;;;6.10;99.90;;;6.58;100.00;97378.69;10359738;28;20256;-67
2023/12/14 06:22:02;;;;;;;13.03;11.63;;;6.10;99.90;;;6.54;100.00;97386.88;10364081;28;20437;-66
2023/12/14 06:27:07;;;;;;;15.27;11.77;;;6.10;99.90;;;6.52;100.00;97386.81;10367397;28;20230;-68
2023/12/14 06:32:10;;;;;;;14.17;11.47;;;6.00;99.90;;;6.54;100.00;97397.91;10362918;28;20241;-66
2023/12/14 06:37:13;;;;;;;14.70;11.73;;;6.10;99.90;;;6.57;100.00;97407.41;10371684;28;20536;-66
2023/12/14 06:42:18;;;;;;;12.47;11.17;;;6.10;99.90;;;6.59;100.00;97426.16;10369083;28;20606;-66
2023/12/14 06:47:21;;;;;;;14.63;12.90;;;6.10;99.90;;;6.59;100.00;97437.97;10366339;28;20222;-66
2023/12/14 06:52:24;;;;;;;15.80;13.37;;;6.10;99.90;;;6.63;100.00;97443.34;10361311;28;20226;-65
2023/12/14 06:57:29;;;;;;;13.80;12.30;;;6.10;99.90;;;6.71;100.00;97456.53;10355883;28;20241;-66
2023/12/14 07:02:32;;;;;;;14.00;11.20;;;6.20;99.90;;;6.64;100.00;97460.34;10364568;28;20226;-64
2023/12/14 07:07:36;;;;;;;12.17;10.93;;;6.10;99.90;;;6.61;100.00;97480.47;10370479;28;20253;-66
2023/12/14 07:12:41;;;;;;;12.70;11.40;;;6.10;99.90;;;6.62;100.00;97492.38;10368767;28;20254;-65
2023/12/14 07:17:44;;;;;;;15.20;13.23;;;6.10;99.90;;;6.65;100.00;97502.72;10350401;28;20317;-67
2023/12/14 07:22:47;;;;;;;14.47;12.93;;;6.20;99.90;;;6.69;100.00;97514.84;10364627;28;20327;-66
2023/12/14 07:27:52;;;;;;;14.87;13.03;;;6.20;99.90;;;6.74;100.00;97533.81;10366374;28;20226;-66
2023/12/14 07:32:55;;;;;;;18.37;15.20;;;6.30;99.90;;;6.73;100.00;97532.06;10364868;28;20252;-67
2023/12/14 07:37:58;;;;;;;21.67;16.60;;;6.30;99.90;;;6.76;100.00;97537.34;10365277;28;20238;-65
2023/12/14 07:43:03;;;;;;;19.50;16.40;;;6.30;99.90;;;6.83;100.00;97538.59;10362995;28;20249;-67
2023/12/14 07:48:06;;;;;;;21.07;16.40;;;6.30;99.90;;;6.80;100.00;97551.09;10369498;28;20237;-67
2023/12/14 07:53:09;;;;;;;18.50;15.33;;;6.30;99.90;;;6.77;100.00;97564.47;10371660;28;20241;-66
2023/12/14 07:58:14;;;;;;;15.93;13.63;;;6.30;99.90;;;6.79;100.00;97587.47;10370143;28;20226;-65
2023/12/14 08:03:17;;;;;;;16.67;13.80;;;6.30;99.90;;;6.85;100.00;97587.00;10365445;28;20221;-67
2023/12/14 08:08:20;;;;;;;17.73;14.30;;;6.30;99.90;;;7.01;100.00;97582.16;10367796;28;20234;-66
2023/12/14 08:13:25;;;;;;;16.80;14.77;;;6.40;99.90;;;7.00;100.00;97588.88;10378346;28;20229;-66
2023/12/14 08:18:28;;;;;;;17.93;14.67;;;6.40;99.90;;;6.95;100.00;97591.88;10374773;28;20252;-68
2023/12/14 08:23:31;;;;;;;16.87;15.10;;;6.40;99.90;;;6.96;100.00;97592.00;10375657;28;20237;-67
2023/12/14 08:28:36;;;;;;;17.73;15.83;;;6.40;99.90;;;7.06;100.00;97601.09;10370343;28;20258;-65
2023/12/14 08:33:39;;;;;;;19.17;17.07;;;6.50;99.90;;;7.10;100.00;97620.88;10376453;28;20665;-68
2023/12/14 08:38:42;;;;;;;19.93;17.20;;;6.50;99.90;;;7.11;100.00;97630.25;10369012;28;20227;-65
2023/12/14 08:43:46;;;;;;;20.20;16.73;;;6.60;99.90;;;7.17;100.00;97638.28;10378216;28;20879;-66
2023/12/14 08:48:50;;;;;;;19.30;16.03;;;6.70;99.90;;;7.22;100.00;97648.75;10375071;28;20280;-66
2023/12/14 08:53:53;;;;;;;18.07;16.17;;;6.70;99.90;;;7.29;100.00;97667.81;10370859;28;20228;-67
2023/12/14 08:58:59;;;;;;;19.97;15.37;;;6.80;99.90;;;7.34;100.00;97672.44;10373068;28;20230;-66
2023/12/14 09:04:02;;;;;;;17.77;15.70;;;6.80;99.90;;;7.49;100.00;97677.66;10374224;28;20244;-67
2023/12/14 09:09:05;;;;;;;21.05;17.00;;;6.90;99.90;;;7.49;100.00;97692.91;10368630;28;20317;-67
2023/12/14 09:14:09;;;;;;;19.40;16.77;;;6.90;99.90;;;7.45;100.00;97693.50;10369300;28;20773;-68
2023/12/14 09:19:13;;;;;;;18.13;15.55;;;6.80;99.90;;;7.49;100.00;97710.72;10375851;28;20242;-66
2023/12/14 09:24:17;;;;;;;18.67;16.73;;;6.90;99.90;;;7.40;100.00;97722.81;10366349;28;20233;-66
2023/12/14 09:29:21;;;;;;;14.70;13.20;;;6.90;99.90;;;7.40;100.00;97733.84;10367191;28;20238;-67
2023/12/14 09:34:25;;;;;;;19.33;16.63;;;6.90;99.90;;;7.42;100.00;97741.59;10365176;28;20238;-67
2023/12/14 09:39:28;;;;;;;18.40;15.90;;;6.90;99.90;;;7.51;100.00;97731.16;10375746;28;20230;-68
2023/12/14 09:44:34;;;;;;;20.33;15.83;;;6.90;99.90;;;7.47;100.00;97745.34;10373894;28;20272;-65
2023/12/14 09:49:38;;;;;;;40.85;31.75;;;6.90;99.90;;;7.54;100.00;97752.59;10372921;28;20225;-67
2023/12/14 09:54:41;;;;;;;26.63;20.87;;;7.00;99.90;;;7.58;100.00;97759.66;10373525;28;20237;-68
2023/12/14 09:59:53;;;;;;;26.40;19.90;;;7.10;99.90;;;7.74;100.00;97766.63;10367825;28;20230;-68
2023/12/14 10:04:57;;;;;;;21.65;18.92;;;7.20;99.90;;;7.91;100.00;97765.22;10370792;28;20650;-68
2023/12/14 10:10:13;;;;;;;22.42;18.27;;;7.40;99.90;;;7.94;100.00;97769.63;10370510;28;20806;-68
2023/12/14 10:15:17;;;;;;;22.73;18.83;;;7.40;99.90;;;7.98;100.00;97771.56;10370544;28;20230;-67
2023/12/14 10:20:22;;;;;;;25.17;19.38;;;7.40;99.90;;;8.18;100.00;97770.31;10366360;28;20226;-68
2023/12/14 10:25:26;;;;;;;22.45;18.85;;;7.60;99.90;;;8.55;100.00;97774.47;10374507;28;20284;-69
2023/12/14 10:30:31;;;;;;;22.08;19.02;;;8.00;99.90;;;8.88;100.00;97782.47;10364922;28;20222;-65
2023/12/14 10:35:38;;;;;;;21.48;18.60;;;8.20;99.90;;;9.06;100.00;97797.16;10373855;28;20234;-66
2023/12/14 10:40:43;;;;;;;20.45;18.27;;;8.50;99.90;;;9.21;100.00;97801.53;10370832;28;20312;-66
2023/12/14 10:45:49;;;;;;;22.45;18.02;;;8.60;99.90;;;9.21;100.00;97805.72;10370553;28;20223;-66
2023/12/14 10:50:54;;;;;;;18.63;16.60;;;8.60;99.90;;;8.85;100.00;97805.22;10366347;28;20242;-65
2023/12/14 10:56:00;;;;;;;19.98;16.70;;;8.20;99.90;;;8.63;100.00;97817.38;10365845;28;20807;-68
2023/12/14 11:01:08;;;;;;;18.95;17.00;;;8.00;99.90;;;8.27;100.00;97821.81;10361900;28;20228;-67
2023/12/14 11:06:28;;;;;;;17.63;14.82;;;7.90;99.90;;;8.16;100.00;97833.00;10364288;28;20248;-67
2023/12/14 11:11:40;;;;;;;18.50;15.55;;;7.70;99.90;;;8.13;100.00;97839.66;10370248;28;20230;-65
2023/12/14 11:16:46;;;;;;;17.20;14.70;;;7.70;99.90;;;8.21;100.00;97834.16;10370873;28;20571;-66
2023/12/14 11:22:17;;;;;;;17.65;15.70;;;7.80;99.90;;;8.41;100.00;97841.47;10371909;28;20236;-67
2023/12/14 11:27:27;;;;;;;19.02;16.20;;;7.90;99.90;;;8.51;100.00;97853.16;10364431;28;20356;-67
2023/12/14 11:32:32;;;;;;;83.10;53.15;;;8.00;99.90;;;8.52;100.00;97850.69;10366986;28;20233;-64
2023/12/14 11:37:36;;;;;;;56.17;36.10;;;8.10;99.90;;;8.57;100.00;97856.09;10365599;28;20242;-66
2023/12/14 11:42:40;;;;;;;25.00;20.23;;;8.10;99.90;;;8.53;100.00;97857.56;10381857;28;20230;-67
2023/12/14 11:47:44;;;;;;;22.13;18.02;;;8.00;99.90;;;8.64;100.00;97854.81;10373326;28;20255;-66
2023/12/14 11:52:47;;;;;;;19.30;15.80;;;8.10;99.90;;;8.63;100.00;97855.59;10373173;28;20249;-65
2023/12/14 11:57:51;;;;;;;16.95;15.15;;;8.10;99.90;;;8.61;100.00;97859.72;10374836;28;20237;-65
2023/12/14 12:03:09;;;;;;;17.88;14.90;;;8.10;99.90;;;8.59;100.00;97872.38;10380182;28;20812;-68
2023/12/14 12:08:13;;;;;;;16.38;14.32;;;8.10;99.90;;;8.65;100.00;97875.31;10377341;28;20238;-66
2023/12/14 12:13:18;;;;;;;15.27;13.65;;;8.20;99.90;;;8.60;100.00;97876.66;10373374;28;20233;-68
2023/12/14 12:18:23;;;;;;;16.27;13.85;;;8.10;99.90;;;8.63;100.00;97891.28;10370189;28;20597;-68
2023/12/14 12:23:26;;;;;;;14.98;13.30;;;8.10;99.90;;;8.68;100.00;97897.56;10367352;28;20654;-66
2023/12/14 12:28:31;;;;;;;14.30;12.80;;;8.10;99.90;;;8.68;100.00;97900.09;10373501;28;20234;-65
2023/12/14 12:33:37;;;;;;;16.45;14.70;;;8.10;99.90;;;8.76;100.00;97898.94;10374516;28;20218;-66
2023/12/14 12:38:41;;;;;;;16.38;13.63;;;8.20;99.90;;;8.76;100.00;97898.94;10376115;28;22092;-65
2023/12/14 12:43:44;;;;;;;18.15;13.43;;;8.20;99.90;;;8.75;100.00;97897.16;10377908;28;20878;-66
2023/12/14 12:48:51;;;;;;;17.27;14.85;;;8.20;99.90;;;8.89;100.00;97892.94;10366688;28;20222;-67
2023/12/14 12:53:55;;;;;;;16.23;13.23;;;8.30;99.90;;;8.70;100.00;97890.88;10375326;28;20222;-65
2023/12/14 12:59:13;;;;;;;14.95;12.60;;;8.20;99.90;;;8.64;100.00;97898.13;10361604;28;20305;-67
2023/12/14 13:04:22;;;;;;;13.68;11.75;;;8.10;99.90;;;8.56;100.00;97903.63;10368549;28;20230;-68
2023/12/14 13:09:26;;;;;;;14.60;12.43;;;8.00;99.90;;;8.69;100.00;97919.69;10373502;28;20683;-68
2023/12/14 13:14:31;;;;;;;15.13;12.73;;;8.10;99.90;;;8.60;100.00;97912.34;10363236;28;20234;-67
2023/12/14 13:19:35;;;;;;;13.85;12.23;;;8.00;99.90;;;8.54;100.00;97924.66;10370333;28;20313;-67
2023/12/14 13:24:38;;;;;;;15.48;13.30;;;8.00;99.90;;;8.47;100.00;97930.13;10365256;28;20245;-67
2023/12/14 13:29:42;;;;;;;15.38;12.68;;;7.90;99.90;;;8.43;100.00;97935.81;10373557;28;20706;-68
2023/12/14 13:34:46;;;;;;;18.73;14.07;;;7.90;99.90;;;8.36;100.00;97944.69;10366190;28;20675;-66
2023/12/14 13:39:49;;;;;;;17.65;14.20;;;7.90;99.90;;;8.38;100.00;97952.41;10367245;28;20859;-68
2023/12/14 13:44:53;;;;;;;17.30;14.18;;;7.90;99.90;;;8.23;100.00;97972.63;10361488;28;20230;-68
2023/12/14 13:49:57;;;;;;;13.70;11.82;;;7.80;99.90;;;8.12;100.00;97980.41;10363448;28;20237;-66
2023/12/14 13:55:00;;;;;;;9.73;8.52;;;7.70;99.90;;;7.91;100.00;97994.22;10370071;28;20222;-67
2023/12/14 14:00:05;;;;;;;10.50;8.63;;;7.40;99.90;;;7.94;100.00;98001.19;10368864;28;20246;-67
2023/12/14 14:05:10;;;;;;;10.80;8.73;;;7.40;99.90;;;7.94;100.00;98009.72;10365347;28;20277;-67
2023/12/14 14:10:14;;;;;;;6.85;6.15;;;7.40;99.90;;;7.64;100.00;98024.59;10359330;28;20230;-65
2023/12/14 14:15:17;;;;;;;4.67;4.30;;;7.20;99.90;;;7.30;100.00;98028.06;10355646;28;20227;-66
2023/12/14 14:20:23;;;;;;;4.90;4.40;;;7.00;99.90;;;7.16;100.00;98045.72;10363701;28;20219;-65
2023/12/14 14:25:26;;;;;;;5.00;4.50;;;6.80;99.90;;;7.16;100.00;98058.44;10360096;28;20320;-65
2023/12/14 14:30:30;;;;;;;5.47;4.97;;;6.80;99.90;;;7.22;100.00;98066.50;10362877;28;20371;-66
2023/12/14 14:35:37;;;;;;;6.07;5.47;;;6.90;99.90;;;7.22;100.00;98079.22;10369590;28;20711;-68
2023/12/14 14:40:41;;;;;;;5.40;4.90;;;6.90;99.90;;;7.29;100.00;98089.81;10359188;28;20231;-65
2023/12/14 14:45:45;;;;;;;6.37;5.77;;;6.90;99.90;;;7.37;100.00;98094.69;10361137;28;20231;-67
2023/12/14 14:50:49;;;;;;;6.07;5.53;;;7.00;99.90;;;7.44;100.00;98096.94;10361273;28;20237;-68
2023/12/14 14:55:55;;;;;;;6.47;5.87;;;7.00;99.90;;;7.44;100.00;98106.22;10371777;28;20229;-66
2023/12/14 15:00:58;;;;;;;7.27;6.50;;;7.00;99.90;;;7.43;100.00;98122.22;10359668;28;20606;-66
2023/12/14 15:06:03;;;;;;;6.55;5.85;;;7.00;99.90;;;7.50;100.00;98127.00;10363446;28;20224;-66
2023/12/14 15:11:09;;;;;;;6.57;5.97;;;7.00;99.90;;;7.42;100.00;98134.06;10371989;28;20745;-66
2023/12/14 15:16:13;;;;;;;6.97;6.37;;;7.00;99.90;;;7.39;100.00;98154.19;10367470;28;20310;-68
2023/12/14 15:21:17;;;;;;;6.68;6.05;;;6.90;99.90;;;7.39;100.00;98155.84;10358649;28;20236;-69
2023/12/14 15:26:20;;;;;;;6.35;5.78;;;6.90;99.90;;;7.38;100.00;98165.16;10362171;28;20250;-68
2023/12/14 15:31:24;;;;;;;6.80;6.30;;;6.90;99.90;;;7.38;100.00;98176.94;10359840;28;20824;-67
2023/12/14 15:36:29;;;;;;;8.50;7.20;;;6.90;99.90;;;7.31;100.00;98184.91;10354049;28;20226;-66
2023/12/14 15:41:33;;;;;;;8.25;7.30;;;6.80;99.90;;;7.33;100.00;98183.38;10361291;28;20230;-69
2023/12/14 15:46:36;;;;;;;8.57;7.78;;;6.80;99.90;;;7.32;100.00;98196.84;10356474;28;20226;-68
2023/12/14 15:51:41;;;;;;;12.63;11.53;;;6.80;99.90;;;7.34;100.00;98208.00;10359705;28;20225;-68
2023/12/14 15:56:44;;;;;;;13.87;12.40;;;6.80;99.90;;;7.35;100.00;98212.31;10361508;28;20308;-66
2023/12/14 16:01:47;;;;;;;12.75;11.48;;;6.90;99.90;;;7.35;100.00;98218.28;10364151;28;20239;-68
2023/12/14 16:06:53;;;;;;;13.53;11.50;;;6.90;99.90;;;7.33;100.00;98226.59;10357761;28;20230;-66
2023/12/14 16:11:56;;;;;;;12.45;11.02;;;6.90;99.90;;;7.35;100.00;98225.91;10362407;28;20722;-67
2023/12/14 16:16:59;;;;;;;11.30;10.23;;;6.80;99.90;;;7.32;100.00;98237.50;10361891;28;20237;-67
2023/12/14 16:22:04;;;;;;;14.87;13.13;;;6.80;99.90;;;7.34;100.00;98246.16;10363856;28;20237;-69
2023/12/14 16:27:07;;;;;;;20.73;17.60;;;6.90;99.90;;;7.37;100.00;98257.44;10369726;28;20227;-65
2023/12/14 16:32:10;;;;;;;18.30;16.23;;;6.90;99.90;;;7.34;100.00;98258.88;10372678;28;20848;-67
2023/12/14 16:37:15;;;;;;;19.25;16.40;;;6.80;99.90;;;7.40;100.00;98275.47;10366722;28;20644;-65
2023/12/14 16:42:18;;;;;;;24.77;19.73;;;6.90;99.90;;;7.35;100.00;98283.50;10369538;28;20321;-65
2023/12/14 16:47:21;;;;;;;23.03;19.07;;;6.90;99.90;;;7.33;100.00;98290.16;10369005;28;20332;-68
2023/12/14 16:52:26;;;;;;;25.80;19.57;;;6.80;99.90;;;7.37;100.00;98302.31;10362958;28;20292;-68
2023/12/14 16:57:29;;;;;;;23.15;17.65;;;6.90;99.90;;;7.39;100.00;98310.97;10372946;28;20292;-66
2023/12/14 17:02:32;;;;;;;23.30;18.60;;;6.80;99.90;;;7.39;100.00;98321.13;10370330;28;20237;-66
2023/12/14 17:07:37;;;;;;;26.53;18.90;;;6.90;99.90;;;7.44;100.00;98332.56;10360230;28;20639;-66
2023/12/14 17:12:40;;;;;;;24.95;19.73;;;6.90;99.90;;;7.39;100.00;98328.75;10372379;28;20309;-67
2023/12/14 17:17:43;;;;;;;22.55;19.08;;;6.90;99.90;;;7.35;100.00;98330.16;10366890;28;20240;-68
2023/12/14 17:22:48;;;;;;;26.30;19.63;;;6.80;99.90;;;7.31;100.00;98335.78;10363393;28;20359;-68
2023/12/14 17:27:51;;;;;;;36.40;25.47;;;6.80;99.90;;;7.33;100.00;98346.09;10373207;28;20237;-67
2023/12/14 17:32:54;;;;;;;52.80;37.73;;;6.80;99.90;;;7.33;100.00;98351.19;10360063;28;20610;-65
2023/12/14 17:37:58;;;;;;;29.05;22.75;;;6.80;99.90;;;7.34;100.00;98370.75;10369087;28;20888;-67
2023/12/14 17:43:02;;;;;;;29.23;21.70;;;6.80;99.90;;;7.29;100.00;98370.38;10362419;28;20377;-67
2023/12/14 17:48:06;;;;;;;27.83;20.03;;;6.80;99.90;;;7.31;100.00;98388.31;10373758;28;20740;-67
2023/12/14 17:53:11;;;;;;;28.93;21.77;;;6.80;99.90;;;7.30;100.00;98396.72;10381076;28;20694;-68
2023/12/14 17:58:14;;;;;;;28.70;20.60;;;6.80;99.90;;;7.31;100.00;98406.09;10365701;28;20783;-67
2023/12/14 18:03:17;;;;;;;29.97;22.67;;;6.80;99.90;;;7.26;100.00;98410.81;10374856;28;20236;-66
2023/12/14 18:08:22;;;;;;;26.87;20.23;;;6.70;99.90;;;7.23;100.00;98415.66;10365497;28;20230;-67
2023/12/14 18:13:26;;;;;;;31.13;24.27;;;6.70;99.90;;;7.22;100.00;98418.97;10364482;28;20237;-67
2023/12/14 18:18:29;;;;;;;32.00;24.27;;;6.70;99.90;;;7.23;100.00;98426.72;10364479;28;20312;-66
2023/12/14 18:23:34;;;;;;;29.10;21.57;;;6.70;99.90;;;7.15;100.00;98450.66;10361374;28;20230;-66
2023/12/14 18:28:37;;;;;;;30.03;21.63;;;6.60;99.90;;;7.12;100.00;98450.38;10360688;28;20232;-66
2023/12/14 18:33:40;;;;;;;27.33;20.35;;;6.60;99.90;;;7.12;100.00;98458.00;10363435;28;20233;-66
2023/12/14 18:38:44;;;;;;;29.57;21.37;;;6.60;99.90;;;7.12;100.00;98462.22;10360424;28;20230;-66
2023/12/14 18:43:47;;;;;;;28.57;20.37;;;6.60;99.90;;;7.20;100.00;98473.88;10362559;28;20237;-66
2023/12/14 18:48:51;;;;;;;28.33;19.37;;;6.60;99.90;;;7.10;100.00;98476.47;10363509;28;20603;-66
2023/12/14 18:53:55;;;;;;;28.27;21.00;;;6.60;99.90;;;7.17;100.00;98486.34;10355376;28;20277;-67
2023/12/14 18:58:58;;;;;;;27.80;21.10;;;6.60;99.90;;;7.17;100.00;98496.53;10360558;28;20244;-66
2023/12/14 19:04:01;;;;;;;27.37;21.10;;;6.60;99.90;;;7.24;100.00;98493.72;10361203;28;20226;-66
2023/12/14 19:09:06;;;;;;;28.77;20.40;;;6.60;99.90;;;7.21;100.00;98504.53;10343387;28;20226;-66
2023/12/14 19:14:09;;;;;;;27.67;20.97;;;6.60;99.90;;;7.22;100.00;98510.50;10370021;28;20229;-66
2023/12/14 19:19:12;;;;;;;25.17;18.80;;;6.60;99.90;;;7.11;100.00;98517.25;10359216;28;20375;-66
2023/12/14 19:24:17;;;;;;;28.07;19.53;;;6.50;99.90;;;7.06;100.00;98523.63;10360782;28;21100;-66
2023/12/14 19:29:20;;;;;;;29.30;19.77;;;6.50;99.90;;;7.02;100.00;98531.78;10366559;28;20237;-67
2023/12/14 19:34:23;;;;;;;24.57;18.37;;;6.50;99.90;;;7.04;100.00;98544.59;10354702;28;20234;-65
2023/12/14 19:39:28;;;;;;;27.70;17.70;;;6.50;99.90;;;7.02;100.00;98557.19;10357360;28;20230;-65
2023/12/14 19:44:31;;;;;;;29.27;20.13;;;6.40;99.90;;;7.04;100.00;98562.38;10361490;28;20298;-67
2023/12/14 19:49:34;;;;;;;29.47;21.17;;;6.40;99.90;;;7.06;100.00;98568.47;10356314;28;20284;-65
2023/12/14 19:54:41;;;;;;;27.47;19.97;;;6.50;99.90;;;7.02;100.00;98580.06;10357939;28;20738;-66
2023/12/14 19:59:47;;;;;;;23.73;16.20;;;6.40;99.90;;;6.91;100.00;98588.44;10346176;28;20403;-65
2023/12/14 20:04:50;;;;;;;26.27;17.57;;;6.40;99.90;;;6.90;100.00;98594.28;10369886;28;20821;-70
2023/12/14 20:09:54;;;;;;;25.67;17.93;;;6.40;99.90;;;6.86;100.00;98602.41;10370519;28;20644;-66
2023/12/14 20:15:07;;;;;;;21.50;16.17;;;6.30;99.90;;;6.81;100.00;98621.44;10366659;28;20222;-67
2023/12/14 20:20:11;;;;;;;21.43;16.43;;;6.30;99.90;;;6.74;100.00;98633.66;10359321;28;20230;-67
2023/12/14 20:25:16;;;;;;;22.00;15.70;;;6.20;99.90;;;6.64;100.00;98638.72;10371353;28;20332;-67
2023/12/14 20:30:19;;;;;;;23.60;15.53;;;6.10;99.90;;;6.57;100.00;98654.19;10372651;28;20234;-68
2023/12/14 20:35:22;;;;;;;23.97;16.80;;;6.10;99.90;;;6.59;100.00;98664.50;10368153;28;20226;-65
2023/12/14 20:40:28;;;;;;;24.10;16.20;;;6.10;99.90;;;6.55;100.00;98660.78;10365806;28;20259;-67
2023/12/14 20:45:31;;;;;;;22.40;15.30;;;6.00;99.90;;;6.46;100.00;98660.88;10376714;28;20263;-67
2023/12/14 20:50:35;;;;;;;20.70;14.10;;;6.00;99.90;;;6.52;100.00;98665.59;10360814;28;20234;-66
2023/12/14 20:55:40;;;;;;;20.73;15.43;;;6.00;99.90;;;6.51;100.00;98681.59;10362445;28;20226;-66
2023/12/14 21:00:43;;;;;;;19.83;14.63;;;6.00;99.90;;;6.41;100.00;98689.19;10357914;28;20372;-67